Terminal Aerodrome Forecast
Issued by NWS

Home | Current Version | Previous Version | Text Only | Print | Product List | Glossary On
Versions: 1 2 3 4 5 6 7 8 9 10 11 12 13 14 15 16 17 18 19
846
FTUS42 KGSP 211724
TAFAND
TAF
KAND 211724Z 2118/2218 VRB03KT P6SM BKN070
     FM220400 VRB03KT 5SM BR BKN050
     FM220600 VRB02KT 3SM BR BKN015
     FM221100 VRB02KT 3SM BR SCT040
     FM221400 02004KT P6SM FEW200=

USA.gov is the U.S. government's official web portal to all federal, state and local government web resources and services.